Flight Track Log - Related Links

Times and Time Zones

All times are in EDT time to prevent confusion due to time zone crossing. See the UAL4696 flight status page for this flight to view local times or setup timezone preferences in your user account.

Time Position Orientation Groundspeed Altitude Reporting Facility
EDT Latitude Longitude Course Direction KTS MPH feet Rate Location/Type
Sun 02:08:47 PM 39.7333 -86.3000 74° East 167 192 1,300  Level Indianapolis TRACON
Sun 02:09:41 PM 39.7667 -86.2500 49° Northeast 211 243 2,900 1,146 Climbing Indianapolis TRACON
Sun 02:10:16 PM 39.7686 -86.2111 86° East 247 284 3,000 1,546 Climbing Indianapolis Center
Sun 02:11:18 PM 39.7789 -86.1267 81° East 238 274 5,400 2,371 Climbing Indianapolis Center
Sun 02:12:20 PM 39.7900 -86.0328 81° East 249 287 7,900 2,341 Climbing Indianapolis Center
Sun 02:13:00 PM 39.8107 -85.6055 79° East  Level FlightAware Approximate
Sun 02:13:21 PM 39.8019 -85.9342 81° East 269 310 10,200  Level Indianapolis Center
Sun 02:14:00 PM 39.8378 -85.4714 74° East  Level FlightAware Approximate
Sun 02:14:23 PM 39.8217 -85.7994 79° East 316 364 11,500  Level Indianapolis Center
Sun 02:15:25 PM 39.8433 -85.6778 77° East 341 392 13,000 1,548 Climbing Indianapolis Center
Sun 02:16:27 PM 39.8667 -85.5536 76° East 351 404 14,700 1,597 Climbing Indianapolis Center
Sun 02:17:29 PM 39.9128 -85.4397 62° Northeast 354 407 16,300 1,548 Climbing Indianapolis Center
Sun 02:18:31 PM 39.9589 -85.3244 62° Northeast 355 409 17,900 1,306 Climbing Indianapolis Center
Sun 02:19:33 PM 40.0000 -85.2050 66° East 360 414 19,000 1,113 Climbing Indianapolis Center
Sun 02:20:35 PM 40.0169 -85.0661 81° East 384 442 20,200 1,210 Climbing Indianapolis Center
Sun 02:21:37 PM 40.0406 -84.8964 80° East 394 453 21,500 1,113 Climbing Indianapolis Center
Sun 02:22:39 PM 40.0564 -84.7633 81° East 401 461 22,500 726 Climbing Indianapolis Center
Sun 02:23:41 PM 40.0758 -84.6156 80° East 408 470 23,000 242 Climbing Indianapolis Center
Sun 02:24:43 PM 40.1064 -84.4311 78° East 428 493 23,000  Level Indianapolis Center
Sun 02:25:45 PM 40.1547 -84.2842 67° East 431 496 23,000  Level Indianapolis Center
Sun 02:26:47 PM 40.2011 -84.1383 67° East 432 497 23,000  Level Indianapolis Center
Sun 02:27:49 PM 40.2458 -83.9950 68° East 430 495 23,000  Level Indianapolis Center
Sun 02:28:52 PM 40.2908 -83.8500 68° East 429 494 23,000 -480 Level Indianapolis Center
Sun 02:29:54 PM 40.3347 -83.7050 68° East 428 493 22,000 -968 Descending Indianapolis Center
Sun 02:30:56 PM 40.3786 -83.5650 68° East 418 481 21,000 -1,065 Descending Indianapolis Center
Sun 02:31:58 PM 40.4319 -83.3944 68° East 418 481 19,800 -968 Descending Indianapolis Center
Sun 02:33:00 PM 40.4717 -83.2594 69° East 404 465 19,000 -387 Descending Indianapolis Center
Sun 02:34:02 PM 40.5136 -83.1239 68° East 401 461 19,000  Level Indianapolis Center
Sun 02:35:04 PM 40.5592 -82.9883 66° East 401 461 19,000 -726 Level Indianapolis Center
Sun 02:36:06 PM 40.6344 -82.8947 43° Northeast 368 423 17,500 -1,790 Descending Indianapolis Center
Sun 02:37:08 PM 40.6997 -82.8094 45° Northeast 335 386 15,300 -2,323 Descending Indianapolis Center
Sun 02:38:10 PM 40.7783 -82.7078 44° Northeast 334 384 12,700 -2,274 Descending Indianapolis Center
Sun 02:39:12 PM 40.8475 -82.6258 42° Northeast 328 377 10,600 -1,296 Descending Indianapolis Center
Sun 02:40:15 PM 40.9131 -82.5575 38° Northeast 304 350 10,000 -290 Descending Indianapolis Center
Sun 02:41:16 PM 40.9811 -82.4861 38° Northeast 305 351 10,000  Level Indianapolis Center
Sun 02:42:19 PM 41.0514 -82.4136 38° Northeast 312 359 10,000 -558 Level Indianapolis Center
Sun 02:43:25 PM 41.1075 -82.3328 47° Northeast 253 291 8,800 -1,183 Descending Cleveland Center
Sun 02:43:30 PM 41.1106 -82.3297 37° Northeast 236 272 8,600 -1,818 Descending Cleveland Center
Sun 02:44:31 PM 41.1547 -82.2619 49° Northeast 233 268 6,800 -1,373 Descending Cleveland Center
Sun 02:45:28 PM 41.1892 -82.2000 54° Northeast 226 260 5,900 -1,000 Descending Cleveland Center
Sun 02:45:31 PM 41.1903 -82.1986 43° Northeast 217 250 5,800 -1,161 Descending Cleveland Center
Sun 02:46:30 PM 41.2275 -82.1431 48° Northeast 212 244 4,700 -1,082 Descending Cleveland Center
Sun 02:46:32 PM 41.2294 -82.1411 37° Northeast 197 227 4,700 -677 Level Cleveland Center
Sun 02:47:32 PM 41.2636 -82.0881 49° Northeast 202 232 4,000 -716 Descending Cleveland Center
Sun 02:47:39 PM 41.2692 -82.0781 54° Northeast 196 226 3,900 -97 Descending Cleveland Center
Sun 02:48:34 PM 41.2986 -82.0322 49° Northeast 199 229 3,900  Level Cleveland Center
Sun 02:48:40 PM 41.3058 -82.0228 44° Northeast 193 222 3,900 -774 Level Cleveland Center
Sun 02:49:36 PM 41.3306 -81.9819 51° Northeast 188 216 3,100 -984 Descending Cleveland Center
Sun 02:49:41 PM 41.3356 -81.9750 46° Northeast 166 191 2,900 -968 Descending Cleveland Center
Sun 02:50:38 PM 41.3592 -81.9356 51° Northeast 172 198 2,100 -900 Descending Cleveland Center
Sun 02:50:41 PM 41.3625 -81.9319 39° Northeast 154 177 2,000 -774 Descending Cleveland Center
Sun 02:51:40 PM 41.3861 -81.8947 50° Northeast 155 178 1,300 -787 Descending Cleveland Center
Sun 02:51:42 PM 41.3897 -81.8889 50° Northeast 146 168 1,200 -484 Descending Cleveland Center
Sun 02:52:42 PM 41.4181 -81.8456 49° Northeast 150 173 800 -400 Descending Cleveland Center

Login

Don't have an account? Register now (free) for customized features, flight alerts, and more!